Decoded Metar for LEAM (ALMERIA in SPAIN) (IATA:LEI) | Meteo·Mobile Aviation Weather
aviador You're here:

LEAM Decoded Metar

ALMERIA in SPAIN
Report Time2019-10-19 23:00:00
UTC Time2019-10-19 23:10:08
Flight Rules vfr VFR
Wind230° at 08 kt
W.Decomp.*RWY 25: 7.6 kt HW 2.6 kt LCW
Visibility9999 m
Phenomena:N/A
Clouds:N/A
Expected CloudBase > 2,000 ft AGL from Temp-Dew spread
CeilingNone
Temp21°C (ISA +6)
Dew Point16°C (73% RH)
AAT20.1°C
QNH1008 hPa
Density Alt1,198 ft
Elevation69 ft
Report Wrong Elevation
Raw Report
METAR LEAM 192300Z AUTO 23008KT 9999 NCD 21/16 Q1008=

Extra information for LEAM:More info

Metar Taf Metar & Taf Last 4 Metars F.Rules Stats Wind Profile Meteogram Temp Stats Airport Information Weather charts Add Link Nearby VenuesMetar ALERT Operation Metar Decoded Social comments